Donnie Sonier — WDF9285 — position and weather

sailwx.info

Track history (hours):
 
Tides and Currents Weather Stations Pressure Air Temp Water Temp Dewpoint Dewpoint Depression Visibility Wind Speed Wind Dir Waves Ship Positions

Donnie Sonier

Owner: LeBeouf Bros. Towing, LLC, Houma, LA. More information available from US FCC via Universal Licensing System and Coast Guard Vessel Documentation Center.

Last reported at 2014-Oct-06 23:21 UTC. Time now 2014-Oct-23 08:42 UTC.
Position N 29°25' W 094°44'.
Warning: this ship's position is 16 days out of date.

Length 22 m.

Type: Tug. MMSI: 367503580.

Date/timePositionNaut miles runAvg speedWind from/ knotsBaromVisibWave heightAir tempDewpointWater temp
2014-Oct-06 23:21N 29°25' W 094°44'0 0.0
2014-Oct-06 22:26N 29°25' W 094°44'162 4.7
2014-Oct-05 12:05N 29°46' W 091°40'4 6.2
2014-Oct-05 11:25N 29°45' W 091°35'7 6.7
2014-Oct-05 10:22N 29°41' W 091°28'5 5.5
2014-Oct-05 09:31N 29°39' W 091°24'4 4.1
2014-Oct-05 08:34N 29°38' W 091°19'6 5.8
2014-Oct-05 07:34N 29°41' W 091°13'3 2.6
2014-Oct-05 06:34N 29°43' W 091°12'4 3.8
2014-Oct-05 05:34N 29°47' W 091°11'6 6.1
2014-Oct-05 04:34N 29°53' W 091°13'6 5.3
2014-Oct-05 03:31N 29°58' W 091°16'  
2014-Sep-29 06:22N 29°53' W 091°13'4 4.2
2014-Sep-29 05:28N 29°50' W 091°11'3 2.8
2014-Sep-29 04:34N 29°47' W 091°10'4 4.2
2014-Sep-29 03:33N 29°43' W 091°12'3 2.9
2014-Sep-29 02:34N 29°41' W 091°13'3 2.6
2014-Sep-29 01:34N 29°39' W 091°16'2 2.3
2014-Sep-29 00:34N 29°39' W 091°18'5 5.2
2014-Sep-28 23:33N 29°39' W 091°24'4 4.2
2014-Sep-28 22:33N 29°41' W 091°29'5 4.5
2014-Sep-28 21:28N 29°44' W 091°33'  
Track history (hours):
 
Tides and Currents Weather Stations Pressure Air Temp Water Temp Dewpoint Dewpoint Depression Visibility Wind Speed Wind Dir Waves Ship Positions

Donnie Sonier

Owner: LeBeouf Bros. Towing, LLC, Houma, LA. More information available from US FCC via Universal Licensing System and Coast Guard Vessel Documentation Center.

Last reported at 2014-Oct-06 23:21 UTC. Time now 2014-Oct-23 08:42 UTC.
Position N 29°25' W 094°44'.
Warning: this ship's position is 16 days out of date.

Length 22 m.

Type: Tug. MMSI: 367503580.

Date/timePositionNaut miles runAvg speedWind from/ knotsBaromVisibWave heightAir tempDewpointWater temp
2014-Oct-06 23:21N 29°25' W 094°44'0 0.0
2014-Oct-06 22:26N 29°25' W 094°44'162 4.7
2014-Oct-05 12:05N 29°46' W 091°40'4 6.2
2014-Oct-05 11:25N 29°45' W 091°35'7 6.7
2014-Oct-05 10:22N 29°41' W 091°28'5 5.5
2014-Oct-05 09:31N 29°39' W 091°24'4 4.1
2014-Oct-05 08:34N 29°38' W 091°19'6 5.8
2014-Oct-05 07:34N 29°41' W 091°13'3 2.6
2014-Oct-05 06:34N 29°43' W 091°12'4 3.8
2014-Oct-05 05:34N 29°47' W 091°11'6 6.1
2014-Oct-05 04:34N 29°53' W 091°13'6 5.3
2014-Oct-05 03:31N 29°58' W 091°16'  
2014-Sep-29 06:22N 29°53' W 091°13'4 4.2
2014-Sep-29 05:28N 29°50' W 091°11'3 2.8
2014-Sep-29 04:34N 29°47' W 091°10'4 4.2
2014-Sep-29 03:33N 29°43' W 091°12'3 2.9
2014-Sep-29 02:34N 29°41' W 091°13'3 2.6
2014-Sep-29 01:34N 29°39' W 091°16'2 2.3
2014-Sep-29 00:34N 29°39' W 091°18'5 5.2
2014-Sep-28 23:33N 29°39' W 091°24'4 4.2
2014-Sep-28 22:33N 29°41' W 091°29'5 4.5
2014-Sep-28 21:28N 29°44' W 091°33'  

Dump ship's entire track history